createdAt,value
2024-05-09T00:00:56.465Z,9.710569
2024-05-09T00:01:56.482Z,9.707446
2024-05-09T00:02:57.159Z,9.704646
2024-05-09T00:03:56.436Z,9.701854
2024-05-09T00:04:56.486Z,9.700716
2024-05-09T00:05:56.386Z,9.700814
2024-05-09T00:06:56.389Z,9.701905
2024-05-09T00:13:46.911Z,9.712139
2024-05-09T00:14:46.915Z,9.711586
2024-05-09T00:15:46.900Z,9.712006
2024-05-09T00:16:46.892Z,9.712100
2024-05-09T00:17:47.069Z,9.711868
2024-05-09T00:18:46.977Z,9.712099
2024-05-09T00:19:46.984Z,9.712129
2024-05-09T00:20:46.884Z,9.712068
2024-05-09T00:21:46.874Z,9.712106
2024-05-09T00:22:46.868Z,9.712203
2024-05-09T00:23:46.815Z,9.711994
2024-05-09T00:24:46.874Z,9.711947
2024-05-09T00:25:46.844Z,9.712462
2024-05-09T00:26:46.826Z,9.712388
2024-05-09T00:27:46.795Z,9.712034
2024-05-09T00:28:46.855Z,9.712363
2024-05-09T00:29:46.832Z,9.712409
2024-05-09T00:30:46.757Z,9.712260
2024-05-09T00:31:46.775Z,9.711680
2024-05-09T00:32:46.802Z,9.711622
2024-05-09T00:33:46.883Z,9.711629
2024-05-09T00:34:46.801Z,9.711693
2024-05-09T00:35:46.754Z,9.711679
2024-05-09T00:36:46.725Z,9.711687
2024-05-09T00:37:50.326Z,9.711752
2024-05-09T00:38:47.708Z,9.711723
2024-05-09T00:39:46.708Z,9.711667
2024-05-09T00:40:46.710Z,9.711648
2024-05-09T00:41:46.702Z,9.711621
2024-05-09T00:42:46.669Z,9.711682
2024-05-09T00:43:48.249Z,9.711714
2024-05-09T00:44:46.638Z,9.711675
2024-05-09T00:45:46.650Z,9.711618
2024-05-09T00:46:46.667Z,9.711648
2024-05-09T00:47:46.815Z,9.711696
2024-05-09T00:48:46.678Z,9.711629
2024-05-09T00:49:46.695Z,9.711565
2024-05-09T00:50:46.837Z,9.711685
2024-05-09T00:51:46.588Z,9.711675
2024-05-09T00:52:46.685Z,9.711602
2024-05-09T00:53:46.596Z,9.711546
2024-05-09T00:54:46.567Z,9.711653
2024-05-09T00:55:46.635Z,9.711617
2024-05-09T00:56:46.558Z,9.711620
2024-05-09T00:57:46.552Z,9.711678
2024-05-09T00:58:46.597Z,9.711626
2024-05-09T00:59:46.536Z,9.711616
2024-05-09T01:00:46.627Z,9.711633
2024-05-09T01:01:46.726Z,9.711614
2024-05-09T01:02:46.598Z,9.711593
2024-05-09T01:03:49.577Z,9.711640
2024-05-09T01:04:47.688Z,9.711660
2024-05-09T01:05:46.524Z,9.711653
2024-05-09T01:06:46.505Z,9.711584
2024-05-09T01:07:46.508Z,9.711616
2024-05-09T01:08:46.478Z,9.711590
2024-05-09T01:09:47.284Z,9.711635
2024-05-09T01:10:48.530Z,9.711592
2024-05-09T01:11:47.567Z,9.711582
2024-05-09T01:12:46.424Z,9.711615
2024-05-09T01:13:46.490Z,9.711613
2024-05-09T01:14:46.415Z,9.711523
2024-05-09T01:15:46.394Z,9.711580
2024-05-09T01:16:46.450Z,9.711633
2024-05-09T01:17:46.508Z,9.711591
2024-05-09T01:18:46.528Z,9.711672
2024-05-09T01:19:46.405Z,9.711645
2024-05-09T01:20:46.435Z,9.711555
2024-05-09T01:21:46.362Z,9.711675
2024-05-09T01:22:48.250Z,9.711625
2024-05-09T01:23:46.372Z,9.711696
2024-05-09T01:24:46.312Z,9.711621
2024-05-09T01:25:46.982Z,9.711611
2024-05-09T01:26:46.317Z,9.711720
2024-05-09T01:27:47.210Z,9.711680
2024-05-09T01:28:46.305Z,9.711709
2024-05-09T01:29:46.287Z,9.711669
2024-05-09T01:30:46.295Z,9.711657
2024-05-09T01:31:46.363Z,9.711676
2024-05-09T01:32:48.298Z,9.711707
2024-05-09T01:33:46.435Z,9.711767
2024-05-09T01:34:47.259Z,9.711730
2024-05-09T01:35:46.251Z,9.711822
2024-05-09T01:36:46.247Z,9.711688
2024-05-09T01:37:46.306Z,9.711825
2024-05-09T01:38:46.208Z,9.711738
2024-05-09T01:39:47.213Z,9.711634
2024-05-09T01:40:46.264Z,9.711614
2024-05-09T01:41:46.254Z,9.711514
2024-05-09T01:42:46.191Z,9.711694
2024-05-09T01:43:46.210Z,9.711566
2024-05-09T01:44:46.163Z,9.711576
2024-05-09T01:45:46.171Z,9.711659
2024-05-09T01:46:46.860Z,9.711736
2024-05-09T01:47:46.410Z,9.711724
2024-05-09T01:48:46.173Z,9.711723
2024-05-09T01:49:46.146Z,9.711582
2024-05-09T01:50:46.751Z,9.711639
2024-05-09T01:51:47.109Z,9.711742
2024-05-09T01:52:47.807Z,9.711622
2024-05-09T01:53:46.812Z,9.711672
2024-05-09T01:54:46.102Z,9.711965
2024-05-09T01:55:46.149Z,9.712105
2024-05-09T01:56:46.053Z,9.712213
2024-05-09T01:57:46.064Z,9.712179
2024-05-09T01:58:46.054Z,9.712143
2024-05-09T01:59:46.070Z,9.711870
2024-05-09T02:00:46.049Z,9.711842
2024-05-09T02:01:56.470Z,9.711904
2024-05-09T02:02:47.343Z,9.711860
2024-05-09T02:03:46.347Z,9.712132
2024-05-09T02:04:46.170Z,9.712000
2024-05-09T02:05:46.904Z,9.711920
2024-05-09T02:06:45.994Z,9.711722
2024-05-09T02:07:46.124Z,9.711676
2024-05-09T02:08:46.020Z,9.711803
2024-05-09T02:09:45.983Z,9.711739
2024-05-09T02:10:46.086Z,9.711684
2024-05-09T02:11:46.024Z,9.711665
2024-05-09T02:12:45.938Z,9.711674
2024-05-09T02:13:46.049Z,9.711706
2024-05-09T02:14:45.922Z,9.711729
2024-05-09T02:15:45.934Z,9.711782
2024-05-09T02:16:45.939Z,9.711704
2024-05-09T02:17:46.035Z,9.711669
2024-05-09T02:18:46.008Z,9.711669
2024-05-09T02:19:45.895Z,9.711740
2024-05-09T02:20:45.930Z,9.711721
2024-05-09T02:21:45.858Z,9.711649
2024-05-09T02:22:46.771Z,9.711646
2024-05-09T02:23:45.866Z,9.711623
2024-05-09T02:24:45.824Z,9.711615
2024-05-09T02:25:45.872Z,9.711637
2024-05-09T02:26:45.814Z,9.711681
2024-05-09T02:27:45.818Z,9.711679
2024-05-09T02:28:45.871Z,9.711707
2024-05-09T02:29:45.799Z,9.711716
2024-05-09T02:30:46.300Z,9.711675
2024-05-09T02:31:45.828Z,9.711688
2024-05-09T02:32:46.069Z,9.711654
2024-05-09T02:33:46.004Z,9.711637
2024-05-09T02:34:45.814Z,9.711576
2024-05-09T02:35:45.829Z,9.711576
2024-05-09T02:36:45.745Z,9.711640
2024-05-09T02:37:45.792Z,9.711654
2024-05-09T02:38:45.813Z,9.711633
2024-05-09T02:39:45.747Z,9.711604
2024-05-09T02:40:45.746Z,9.711612
2024-05-09T02:41:45.703Z,9.711679
2024-05-09T02:42:45.688Z,9.711682
2024-05-09T02:43:45.757Z,9.711613
2024-05-09T02:44:45.666Z,9.711666
2024-05-09T02:45:45.671Z,9.711634
2024-05-09T02:46:45.777Z,9.711574
2024-05-09T02:47:45.804Z,9.711683
2024-05-09T02:48:45.860Z,9.711593
2024-05-09T02:49:45.667Z,9.711607
2024-05-09T02:50:45.765Z,9.711679
2024-05-09T02:51:45.611Z,9.711633
2024-05-09T02:52:45.633Z,9.711779
2024-05-09T02:53:45.654Z,9.711756
2024-05-09T02:54:45.597Z,9.711702
2024-05-09T02:55:45.640Z,9.711663
2024-05-09T02:56:45.566Z,9.711640
2024-05-09T02:57:45.572Z,9.711782
2024-05-09T02:58:46.436Z,9.711652
2024-05-09T02:59:45.562Z,9.711700
2024-05-09T03:00:45.575Z,9.711671
2024-05-09T03:01:45.782Z,9.711628
2024-05-09T03:02:45.666Z,9.711638
2024-05-09T03:03:45.695Z,9.711494
2024-05-09T03:04:45.700Z,9.711524
2024-05-09T03:05:45.839Z,9.711393
2024-05-09T03:06:45.500Z,9.711378
2024-05-09T03:07:45.508Z,9.711470
2024-05-09T03:08:45.549Z,9.711522
2024-05-09T03:09:45.485Z,9.711641
2024-05-09T03:10:45.520Z,9.711583
2024-05-09T03:11:45.590Z,9.711636
2024-05-09T03:12:45.521Z,9.711550
2024-05-09T03:13:45.460Z,9.711566
2024-05-09T03:14:47.232Z,9.711980
2024-05-09T03:15:45.440Z,9.711682
2024-05-09T03:16:45.493Z,9.711674
2024-05-09T03:17:45.840Z,9.711645
2024-05-09T03:18:45.525Z,9.711699
2024-05-09T03:19:45.533Z,9.711697
2024-05-09T03:20:45.482Z,9.711659
2024-05-09T03:21:45.361Z,9.711656
2024-05-09T03:22:45.394Z,9.711615
2024-05-09T03:23:45.551Z,9.711668
2024-05-09T03:24:45.356Z,9.711625
2024-05-09T03:25:45.474Z,9.711654
2024-05-09T03:26:46.349Z,9.711669
2024-05-09T03:27:45.308Z,9.711649
2024-05-09T03:28:45.306Z,9.711667
2024-05-09T03:29:46.294Z,9.711618
2024-05-09T03:30:45.297Z,9.711686
2024-05-09T03:31:45.425Z,9.711711
2024-05-09T03:32:45.370Z,9.711682
2024-05-09T03:33:45.446Z,9.711632
2024-05-09T03:34:45.294Z,9.711466
2024-05-09T03:35:45.252Z,9.711536
2024-05-09T03:36:45.251Z,9.711586
2024-05-09T03:37:45.361Z,9.711651
2024-05-09T03:38:45.302Z,9.711651
2024-05-09T03:39:45.218Z,9.711657
2024-05-09T03:40:45.307Z,9.711684
2024-05-09T03:41:45.229Z,9.711675
2024-05-09T03:42:45.204Z,9.711661
2024-05-09T03:43:45.206Z,9.711691
2024-05-09T03:44:45.179Z,9.711715
2024-05-09T03:45:45.176Z,9.711690
2024-05-09T03:46:45.268Z,9.711801
2024-05-09T03:47:45.508Z,9.711651
2024-05-09T03:48:45.343Z,9.711847
2024-05-09T03:49:45.140Z,9.711728
2024-05-09T03:50:45.186Z,9.711697
2024-05-09T03:51:45.131Z,9.711440
2024-05-09T03:52:45.140Z,9.711691
2024-05-09T03:53:45.110Z,9.711783
2024-05-09T03:54:45.100Z,9.711545
2024-05-09T03:55:45.220Z,9.711519
2024-05-09T03:56:45.141Z,9.711543
2024-05-09T03:57:45.069Z,9.711684
2024-05-09T03:58:45.071Z,9.711457
2024-05-09T03:59:45.059Z,9.711738
2024-05-09T04:00:45.125Z,9.711786
2024-05-09T04:01:45.246Z,9.711606
2024-05-09T04:02:46.160Z,9.711554
2024-05-09T04:03:45.281Z,9.711608
2024-05-09T04:04:45.183Z,9.711586
2024-05-09T04:05:45.245Z,9.711463
2024-05-09T04:06:45.022Z,9.711336
2024-05-09T04:07:44.993Z,9.711478
2024-05-09T04:08:45.003Z,9.711741
2024-05-09T04:09:44.992Z,9.711837
2024-05-09T04:10:45.070Z,9.711508
2024-05-09T04:11:45.046Z,9.711344
2024-05-09T04:12:44.979Z,9.711520
2024-05-09T04:13:45.005Z,9.711754
2024-05-09T04:14:44.941Z,9.711754
2024-05-09T04:15:44.939Z,9.711928
2024-05-09T04:16:44.958Z,9.711857
2024-05-09T04:17:45.040Z,9.711872
2024-05-09T04:18:44.986Z,9.711676
2024-05-09T04:19:44.951Z,9.711782
2024-05-09T04:20:44.965Z,9.711740
2024-05-09T04:21:44.894Z,9.711877
2024-05-09T04:22:44.946Z,9.711865
2024-05-09T04:23:44.925Z,9.711912
2024-05-09T04:24:44.869Z,9.711776
2024-05-09T04:25:45.602Z,9.711672
2024-05-09T04:26:45.863Z,9.711589
2024-05-09T04:27:44.853Z,9.711588
2024-05-09T04:28:44.869Z,9.711601
2024-05-09T04:29:44.814Z,9.711632
2024-05-09T04:30:44.827Z,9.711603
2024-05-09T04:31:44.844Z,9.711630
2024-05-09T04:32:44.941Z,9.711739
2024-05-09T04:33:44.914Z,9.711775
2024-05-09T04:34:44.807Z,9.711674
2024-05-09T04:35:45.678Z,9.711517
2024-05-09T04:36:44.854Z,9.711753
2024-05-09T04:37:44.787Z,9.711836
2024-05-09T04:38:44.787Z,9.712136
2024-05-09T04:39:44.731Z,9.712300
2024-05-09T04:40:44.807Z,9.712093
2024-05-09T04:41:46.363Z,9.712068
2024-05-09T04:42:44.708Z,9.712032
2024-05-09T04:43:44.742Z,9.712193
2024-05-09T04:44:44.719Z,9.712138
2024-05-09T04:45:44.676Z,9.711990
2024-05-09T04:46:44.728Z,9.711961
2024-05-09T04:47:44.783Z,9.711899
2024-05-09T04:48:44.847Z,9.711925
2024-05-09T04:49:44.723Z,9.711781
2024-05-09T04:50:45.057Z,9.711944
2024-05-09T04:51:44.635Z,9.712072
2024-05-09T04:52:44.708Z,9.711617
2024-05-09T04:53:44.819Z,9.711648
2024-05-09T04:54:44.607Z,9.711715
2024-05-09T04:55:44.742Z,9.711848
2024-05-09T04:56:44.629Z,9.711796
2024-05-09T04:57:44.594Z,9.711816
2024-05-09T04:58:44.668Z,9.711856
2024-05-09T04:59:44.565Z,9.711673
2024-05-09T05:00:44.591Z,9.711811
2024-05-09T05:01:44.713Z,9.711753
2024-05-09T05:02:44.631Z,9.711711
2024-05-09T05:03:44.796Z,9.711617
2024-05-09T05:04:44.763Z,9.711749
2024-05-09T05:05:45.634Z,9.711734
2024-05-09T05:06:44.510Z,9.711825
2024-05-09T05:07:44.546Z,9.711696
2024-05-09T05:08:44.599Z,9.711681
2024-05-09T05:09:44.501Z,9.711679
2024-05-09T05:10:44.563Z,9.711809
2024-05-09T05:11:44.594Z,9.711916
2024-05-09T05:12:44.458Z,9.711808
2024-05-09T05:13:44.520Z,9.711864
2024-05-09T05:14:44.449Z,9.711797
2024-05-09T05:15:44.422Z,9.711663
2024-05-09T05:16:44.466Z,9.711715
2024-05-09T05:17:44.544Z,9.711726
2024-05-09T05:18:44.519Z,9.711734
2024-05-09T05:19:44.607Z,9.711772
2024-05-09T05:20:44.539Z,9.711656
2024-05-09T05:21:44.418Z,9.711710
2024-05-09T05:22:44.447Z,9.711715
2024-05-09T05:23:44.383Z,9.711672
2024-05-09T05:24:44.374Z,9.711767
2024-05-09T05:25:44.487Z,9.711720
2024-05-09T05:26:44.417Z,9.711752
2024-05-09T05:27:44.360Z,9.711759
2024-05-09T05:28:44.415Z,9.711639
2024-05-09T05:29:44.412Z,9.711664
2024-05-09T05:30:44.306Z,9.711738
2024-05-09T05:31:44.495Z,9.711732
2024-05-09T05:32:44.419Z,9.711711
2024-05-09T05:33:44.397Z,9.711711
2024-05-09T05:34:45.256Z,9.711810
2024-05-09T05:35:44.366Z,9.711770
2024-05-09T05:36:45.284Z,9.711791
2024-05-09T05:37:44.318Z,9.711807
2024-05-09T05:38:44.453Z,9.711744
2024-05-09T05:39:44.290Z,9.712008
2024-05-09T05:40:44.347Z,9.712048
2024-05-09T05:41:44.283Z,9.712016
2024-05-09T05:42:44.277Z,9.711861
2024-05-09T05:43:44.322Z,9.711952
2024-05-09T05:44:44.229Z,9.712255
2024-05-09T05:45:44.211Z,9.712108
2024-05-09T05:46:44.253Z,9.711833
2024-05-09T05:47:44.302Z,9.711990
2024-05-09T05:48:44.226Z,9.711917
2024-05-09T05:49:44.290Z,9.712139
2024-05-09T05:50:44.249Z,9.712125
2024-05-09T05:51:44.849Z,9.712175
2024-05-09T05:52:44.237Z,9.712086
2024-05-09T05:53:44.215Z,9.712110
2024-05-09T05:54:44.128Z,9.712073
2024-05-09T05:55:44.224Z,9.712227
2024-05-09T05:56:44.162Z,9.712265
2024-05-09T05:57:44.103Z,9.712254
2024-05-09T05:58:44.162Z,9.712090
2024-05-09T05:59:44.126Z,9.712217
2024-05-09T06:00:44.433Z,9.712171
2024-05-09T06:01:44.174Z,9.712428
2024-05-09T06:02:44.278Z,9.712384
2024-05-09T06:03:44.304Z,9.712086
2024-05-09T06:04:44.100Z,9.711792
2024-05-09T06:05:44.502Z,9.711824
2024-05-09T06:06:44.037Z,9.711685
2024-05-09T06:07:44.013Z,9.711490
2024-05-09T06:08:44.267Z,9.711563
2024-05-09T06:09:45.962Z,9.712028
2024-05-09T06:10:45.256Z,9.711676
2024-05-09T06:11:44.179Z,9.711897
2024-05-09T06:12:43.978Z,9.711678
2024-05-09T06:13:43.997Z,9.712045
2024-05-09T06:14:43.975Z,9.712047
2024-05-09T06:15:44.182Z,9.711946
2024-05-09T06:16:43.959Z,9.711881
2024-05-09T06:17:44.132Z,9.711811
2024-05-09T06:18:44.217Z,9.711813
2024-05-09T06:19:43.996Z,9.711844
2024-05-09T06:20:44.482Z,9.711832
2024-05-09T06:21:43.910Z,9.711934
2024-05-09T06:22:44.827Z,9.711894
2024-05-09T06:23:43.981Z,9.711929
2024-05-09T06:24:43.879Z,9.712048
2024-05-09T06:25:43.986Z,9.712004
2024-05-09T06:26:43.975Z,9.712106
2024-05-09T06:27:43.849Z,9.712144
2024-05-09T06:28:43.864Z,9.712147
2024-05-09T06:29:43.847Z,9.711946
2024-05-09T06:30:43.864Z,9.711934
2024-05-09T06:31:44.497Z,9.711962
2024-05-09T06:32:43.958Z,9.711862
2024-05-09T06:33:43.866Z,9.711733
2024-05-09T06:34:43.967Z,9.711719
2024-05-09T06:35:44.845Z,9.711697
2024-05-09T06:36:43.788Z,9.711786
2024-05-09T06:37:43.785Z,9.711843
2024-05-09T06:38:43.761Z,9.711930
2024-05-09T06:39:43.751Z,9.712022
2024-05-09T06:40:44.581Z,9.711843
2024-05-09T06:41:43.815Z,9.711809
2024-05-09T06:42:43.772Z,9.711829
2024-05-09T06:43:43.764Z,9.711821
2024-05-09T06:44:45.295Z,9.711843
2024-05-09T06:45:43.700Z,9.711829
2024-05-09T06:46:43.786Z,9.711800
2024-05-09T06:47:43.786Z,9.711753
2024-05-09T06:48:43.809Z,9.711722
2024-05-09T06:49:43.709Z,9.711742
2024-05-09T06:50:43.692Z,9.711773
2024-05-09T06:51:43.670Z,9.711778
2024-05-09T06:52:43.649Z,9.711735
2024-05-09T06:53:43.726Z,9.711742
2024-05-09T06:54:43.626Z,9.711735
2024-05-09T06:55:43.659Z,9.711689
2024-05-09T06:56:44.434Z,9.711716
2024-05-09T06:57:43.620Z,9.711725
2024-05-09T06:58:43.608Z,9.711695
2024-05-09T06:59:43.685Z,9.711751
2024-05-09T07:00:43.701Z,9.711752
2024-05-09T07:01:43.578Z,9.711771
2024-05-09T07:02:43.772Z,9.711737
2024-05-09T07:03:43.636Z,9.711782
2024-05-09T07:04:43.590Z,9.711792
2024-05-09T07:05:43.675Z,9.711704
2024-05-09T07:06:43.576Z,9.711782
2024-05-09T07:07:45.429Z,9.711782
2024-05-09T07:08:43.608Z,9.711745
2024-05-09T07:09:43.507Z,9.711756
2024-05-09T07:10:43.597Z,9.711764
2024-05-09T07:11:43.558Z,9.711827
2024-05-09T07:12:43.514Z,9.711902
2024-05-09T07:13:43.468Z,9.711817
2024-05-09T07:14:43.491Z,9.711924
2024-05-09T07:15:43.467Z,9.711997
2024-05-09T07:16:43.451Z,9.712143
2024-05-09T07:17:44.477Z,9.712049
2024-05-09T07:18:43.798Z,9.711809
2024-05-09T07:19:43.444Z,9.711825
2024-05-09T07:20:43.495Z,9.711811
2024-05-09T07:21:43.441Z,9.712102
2024-05-09T07:22:43.400Z,9.712128
2024-05-09T07:23:46.922Z,9.712638
2024-05-09T07:24:43.403Z,9.712602
2024-05-09T07:25:43.415Z,9.712135
2024-05-09T07:26:43.434Z,9.712034
2024-05-09T07:27:43.395Z,9.711977
2024-05-09T07:28:43.354Z,9.711980
2024-05-09T07:29:43.360Z,9.711970
2024-05-09T07:30:43.412Z,9.711895
2024-05-09T07:31:43.328Z,9.711812
2024-05-09T07:32:43.530Z,9.711714
2024-05-09T07:33:43.479Z,9.711937
2024-05-09T07:34:43.390Z,9.711886
2024-05-09T07:35:43.401Z,9.711864
2024-05-09T07:36:43.314Z,9.711782
2024-05-09T07:37:43.300Z,9.712082
2024-05-09T07:38:43.453Z,9.712008
2024-05-09T07:39:43.272Z,9.711904
2024-05-09T07:40:43.349Z,9.712111
2024-05-09T07:41:43.323Z,9.712559
2024-05-09T07:42:43.275Z,9.712258
2024-05-09T07:43:43.254Z,9.711837
2024-05-09T07:44:43.331Z,9.711626
2024-05-09T07:45:51.059Z,9.711807
2024-05-09T07:47:47.966Z,9.712095
2024-05-09T07:49:12.742Z,9.712194
2024-05-09T07:51:32.174Z,9.712346
2024-05-09T07:53:34.375Z,9.712495
2024-05-09T07:53:48.898Z,9.712291
2024-05-09T07:54:44.354Z,9.712370
2024-05-09T07:55:43.254Z,9.712542
2024-05-09T07:56:44.077Z,9.712851
2024-05-09T07:57:43.246Z,9.712541
2024-05-09T07:58:43.124Z,9.712643
2024-05-09T07:59:43.128Z,9.712749
2024-05-09T08:00:43.211Z,9.712673
2024-05-09T08:01:43.264Z,9.712425
2024-05-09T08:02:43.151Z,9.712379
2024-05-09T08:03:43.155Z,9.712810
2024-05-09T08:04:43.165Z,9.712846
2024-05-09T08:05:43.148Z,9.712740
2024-05-09T08:06:43.121Z,9.712392
2024-05-09T08:07:44.817Z,9.711682
2024-05-09T08:08:43.074Z,9.711670
2024-05-09T08:09:43.098Z,9.711677
2024-05-09T08:10:43.190Z,9.711635
2024-05-09T08:11:43.076Z,9.711603
2024-05-09T08:12:43.032Z,9.711652
2024-05-09T08:13:43.057Z,9.711611
2024-05-09T08:14:43.018Z,9.711646
2024-05-09T08:15:43.016Z,9.711678
2024-05-09T08:16:43.839Z,9.711710
2024-05-09T08:17:43.093Z,9.711683
2024-05-09T08:18:43.110Z,9.711705
2024-05-09T08:19:43.105Z,9.711717
2024-05-09T08:20:42.966Z,9.711686
2024-05-09T08:21:43.012Z,9.711680
2024-05-09T08:22:42.949Z,9.711651
2024-05-09T08:23:42.927Z,9.711635
2024-05-09T08:24:42.964Z,9.711652
2024-05-09T08:25:42.917Z,9.711658
2024-05-09T08:26:42.919Z,9.711657
2024-05-09T08:31:53.786Z,9.711612
2024-05-09T08:32:50.896Z,9.711656
2024-05-09T08:33:50.980Z,9.711677
2024-05-09T08:34:50.848Z,9.711681
2024-05-09T08:35:50.818Z,9.711634
2024-05-09T08:36:50.865Z,9.711655
2024-05-09T08:37:50.842Z,9.711658
2024-05-09T08:38:50.780Z,9.711616
2024-05-09T08:39:50.795Z,9.711595
2024-05-09T08:40:51.758Z,9.711558
2024-05-09T08:41:51.745Z,9.711598
2024-05-09T08:42:50.779Z,9.711617
2024-05-09T08:43:50.739Z,9.711801
2024-05-09T08:44:50.711Z,9.711645
2024-05-09T08:45:51.728Z,9.711603
2024-05-09T08:46:50.731Z,9.711961
2024-05-09T08:47:50.745Z,9.712010
2024-05-09T08:48:50.790Z,9.712028
2024-05-09T08:49:50.711Z,9.712057
2024-05-09T08:50:50.843Z,9.712053
2024-05-09T08:51:50.709Z,9.712053
2024-05-09T08:52:51.195Z,9.712037
2024-05-09T08:53:51.648Z,9.711969
2024-05-09T08:54:50.680Z,9.711957
2024-05-09T08:55:50.679Z,9.711753
2024-05-09T08:56:50.691Z,9.711719
2024-05-09T08:57:50.656Z,9.711744
2024-05-09T09:02:58.596Z,9.711734
2024-05-09T09:03:58.655Z,9.711665
2024-05-09T21:11:55.607Z,9.711093
2024-05-09T21:12:55.602Z,9.712038
2024-05-09T21:13:55.551Z,9.713494
2024-05-09T21:14:55.558Z,9.713764
2024-05-09T21:15:55.694Z,9.713170
2024-05-09T21:16:55.740Z,9.712358
2024-05-09T21:17:56.520Z,9.712057
2024-05-09T21:18:55.561Z,9.711990
2024-05-09T21:19:55.521Z,9.712008
2024-05-09T21:20:55.496Z,9.711865
2024-05-09T21:21:55.518Z,9.711507
2024-05-09T21:22:55.467Z,9.711900
2024-05-09T21:23:55.484Z,9.711776
2024-05-09T21:24:55.502Z,9.711704
2024-05-09T21:25:55.448Z,9.711546
2024-05-09T21:26:56.431Z,9.711617
2024-05-09T21:27:55.740Z,9.711279
2024-05-09T21:28:55.441Z,9.711332
2024-05-09T21:29:55.419Z,9.711469
2024-05-09T21:30:55.448Z,9.711568
2024-05-09T21:31:55.393Z,9.711711
2024-05-09T21:32:55.463Z,9.711559
2024-05-09T21:33:55.628Z,9.711713
2024-05-09T21:34:55.415Z,9.711841
2024-05-09T21:35:55.380Z,9.711595
2024-05-09T21:36:55.413Z,9.711588
2024-05-09T21:37:55.354Z,9.711666
2024-05-09T21:38:55.942Z,9.711580
2024-05-09T21:39:55.458Z,9.711643
2024-05-09T21:40:55.530Z,9.712037
2024-05-09T21:41:55.319Z,9.711722
2024-05-09T21:42:55.341Z,9.711508
2024-05-09T21:43:55.305Z,9.711370
2024-05-09T21:44:55.296Z,9.711403
2024-05-09T21:45:55.890Z,9.711369
2024-05-09T21:46:55.409Z,9.711967
2024-05-09T21:47:55.664Z,9.711828
2024-05-09T21:48:55.425Z,9.711411
2024-05-09T21:49:55.259Z,9.711323
2024-05-09T21:50:55.243Z,9.712277
2024-05-09T21:51:55.287Z,9.710985
2024-05-09T21:52:55.318Z,9.711383
2024-05-09T21:53:55.312Z,9.711724
2024-05-09T21:54:55.438Z,9.712183
2024-05-09T21:55:55.233Z,9.712167
2024-05-09T21:56:55.217Z,9.712167
2024-05-09T21:57:55.313Z,9.712167
2024-05-09T21:58:55.176Z,9.712167
2024-05-09T21:59:55.388Z,9.712167
2024-05-09T22:00:55.228Z,9.712167
2024-05-09T22:01:55.466Z,9.712167
2024-05-09T22:02:55.277Z,9.712167
2024-05-09T22:03:55.261Z,9.711886
2024-05-09T22:04:55.261Z,9.711886
2024-05-09T22:05:55.143Z,9.711886
2024-05-09T22:06:55.164Z,9.711886
2024-05-09T22:07:55.189Z,9.711836
2024-05-09T22:08:55.128Z,9.711807
2024-05-09T22:09:55.132Z,9.711838
2024-05-09T22:10:55.320Z,9.711888
2024-05-09T22:11:56.567Z,9.711879
2024-05-09T22:12:55.165Z,9.711867
2024-05-09T22:13:55.079Z,9.711757
2024-05-09T22:14:55.049Z,9.711760
2024-05-09T22:15:55.072Z,9.711939
2024-05-09T22:16:55.109Z,9.711841
2024-05-09T22:17:55.344Z,9.711875
2024-05-09T22:18:55.170Z,9.711891
2024-05-09T22:19:55.866Z,9.711752
2024-05-09T22:20:55.015Z,9.711694
2024-05-09T22:21:55.135Z,9.711790
2024-05-09T22:22:55.110Z,9.711980
2024-05-09T22:23:54.968Z,9.711942
2024-05-09T22:24:55.042Z,9.712059
2024-05-09T22:25:54.978Z,9.711728
2024-05-09T22:26:54.946Z,9.711845
2024-05-09T22:27:56.078Z,9.711736
2024-05-09T22:28:55.077Z,9.711859
2024-05-09T22:29:54.932Z,9.711962
2024-05-09T22:30:54.991Z,9.712012
2024-05-09T22:31:54.985Z,9.711902
2024-05-09T22:32:55.942Z,9.711735
2024-05-09T22:33:55.192Z,9.711452
2024-05-09T22:34:54.965Z,9.711478
2024-05-09T22:35:54.883Z,9.711286
2024-05-09T22:36:54.900Z,9.710924
2024-05-09T22:37:55.480Z,9.710583
2024-05-09T22:38:54.858Z,9.710902
2024-05-09T22:39:54.886Z,9.711196
2024-05-09T22:40:54.869Z,9.711512
2024-05-09T22:41:54.844Z,9.711677
2024-05-09T22:42:54.905Z,9.711905
2024-05-09T22:43:54.892Z,9.711607
2024-05-09T22:44:54.854Z,9.711636
2024-05-09T22:45:55.324Z,9.711754
2024-05-09T22:46:54.831Z,9.711604
2024-05-09T22:47:55.028Z,9.711452
2024-05-09T22:48:54.867Z,9.711373
2024-05-09T22:49:54.764Z,9.711484
2024-05-09T22:50:55.027Z,9.711576
2024-05-09T22:51:54.780Z,9.711790
2024-05-09T22:52:54.734Z,9.711669
2024-05-09T22:53:54.748Z,9.711789
2024-05-09T22:54:54.859Z,9.711691
2024-05-09T22:55:55.709Z,9.711541
2024-05-09T22:56:54.722Z,9.711577
2024-05-09T22:57:54.812Z,9.711894
2024-05-09T22:58:54.695Z,9.711863
2024-05-09T22:59:54.674Z,9.711846
2024-05-09T23:00:54.809Z,9.711845
2024-05-09T23:01:54.766Z,9.711937
2024-05-09T23:02:54.747Z,9.712021
2024-05-09T23:03:54.852Z,9.711877
2024-05-09T23:04:54.795Z,9.711884
2024-05-09T23:05:54.637Z,9.712254
2024-05-09T23:06:54.692Z,9.711893
2024-05-09T23:07:54.623Z,9.712037
2024-05-09T23:08:54.602Z,9.712074
2024-05-09T23:09:54.658Z,9.711729
2024-05-09T23:10:54.850Z,9.711726
2024-05-09T23:11:55.530Z,9.711679
2024-05-09T23:12:56.514Z,9.711755
2024-05-09T23:13:55.455Z,9.711716
2024-05-09T23:14:54.566Z,9.711719
2024-05-09T23:15:54.582Z,9.711686
2024-05-09T23:16:54.579Z,9.711660
2024-05-09T23:17:54.702Z,9.711667
2024-05-09T23:18:54.595Z,9.711678
2024-05-09T23:19:54.520Z,9.711732
2024-05-09T23:20:54.517Z,9.711741
2024-05-09T23:21:54.555Z,9.711695
2024-05-09T23:22:54.510Z,9.711637
2024-05-09T23:23:56.370Z,9.711606
2024-05-09T23:24:54.491Z,9.711663
2024-05-09T23:25:54.474Z,9.711677
2024-05-09T23:26:54.481Z,9.711736
2024-05-09T23:27:54.475Z,9.711676
2024-05-09T23:28:54.452Z,9.711701
2024-05-09T23:29:54.422Z,9.711698
2024-05-09T23:30:54.456Z,9.711729
2024-05-09T23:31:54.441Z,9.711690
2024-05-09T23:32:54.482Z,9.711707
2024-05-09T23:33:55.644Z,9.711663
2024-05-09T23:34:54.460Z,9.711684
2024-05-09T23:35:54.392Z,9.711699
2024-05-09T23:36:54.425Z,9.711676
2024-05-09T23:37:54.376Z,9.711703
2024-05-09T23:38:54.460Z,9.711689
2024-05-09T23:39:54.363Z,9.711684
2024-05-09T23:40:54.497Z,9.711698
2024-05-09T23:41:54.354Z,9.711700
2024-05-09T23:42:54.366Z,9.711641
2024-05-09T23:43:54.337Z,9.711680
2024-05-09T23:44:54.306Z,9.711720
2024-05-09T23:45:54.359Z,9.711686
2024-05-09T23:46:54.324Z,9.711658
2024-05-09T23:47:54.360Z,9.711621
2024-05-09T23:48:54.359Z,9.711625
2024-05-09T23:49:54.271Z,9.711703
2024-05-09T23:50:54.271Z,9.711509
2024-05-09T23:51:54.284Z,9.711697
2024-05-09T23:52:54.250Z,9.711837
2024-05-09T23:53:54.265Z,9.712010
2024-05-09T23:54:54.226Z,9.712173
2024-05-09T23:55:54.230Z,9.712491
2024-05-09T23:56:54.220Z,9.711745
2024-05-09T23:57:54.270Z,9.711980
2024-05-09T23:58:54.257Z,9.711844
2024-05-09T23:59:54.264Z,9.712351
